Time;durP1;ratioP1;P1;durP2;ratioP2;P2;SDS_P1;SDS_P2;PMS_P1;PMS_P2;Temp;Humidity;BMP_temperature;BMP_pressure;BME280_temperature;BME280_humidity;BME280_pressure;Samples;Min_cycle;Max_cycle;Signal;HPM_P1;HPM_P2
2021/10/20 00:00:43;;;;;;;38.98;22.20;;;;;;;4.59;100.00;100027.64;1651347;85;21019;-66
2021/10/20 00:03:34;;;;;;;37.38;23.10;;;;;;;4.55;100.00;100037.10;1657116;85;21027;-66
2021/10/20 00:06:51;;;;;;;41.92;24.23;;;;;;;4.50;100.00;100033.87;1641184;85;21489;-66
2021/10/20 00:09:13;;;;;;;49.35;26.75;;;;;;;4.45;100.00;100038.06;1655824;83;21438;-65
2021/10/20 00:12:01;;;;;;;47.27;26.68;;;;;;;4.37;100.00;100038.70;1718174;82;21451;-65
2021/10/20 00:14:55;;;;;;;51.33;24.87;;;;;;;4.33;100.00;100044.67;1729030;82;21387;-64
2021/10/20 00:17:39;;;;;;;54.10;27.32;;;;;;;4.30;100.00;100045.88;1727561;80;21662;-66
2021/10/20 00:20:21;;;;;;;59.85;31.42;;;;;;;4.31;100.00;100048.95;1722260;82;21447;-67
2021/10/20 00:23:04;;;;;;;66.42;33.20;;;;;;;4.30;100.00;100039.34;1712672;82;21419;-65
2021/10/20 00:25:44;;;;;;;63.95;33.05;;;;;;;4.30;100.00;100036.73;1718819;82;21403;-65
2021/10/20 00:28:30;;;;;;;58.65;33.25;;;;;;;4.30;100.00;100046.30;1658271;85;21458;-66
2021/10/20 00:31:25;;;;;;;52.48;30.05;;;;;;;4.30;100.00;100050.21;1625274;85;21552;-66
2021/10/20 00:34:06;;;;;;;57.60;32.13;;;;;;;4.28;100.00;100051.47;1658476;85;21567;-66
2021/10/20 00:36:41;;;;;;;64.07;34.85;;;;;;;4.29;100.00;100054.55;1656008;85;21647;-64
2021/10/20 00:39:43;;;;;;;63.45;34.48;;;;;;;4.30;100.00;100053.70;1658476;85;21541;-65
2021/10/20 00:42:14;;;;;;;80.20;42.45;;;;;;;4.33;100.00;100056.84;1655007;85;21525;-65
2021/10/20 00:45:10;;;;;;;90.05;47.15;;;;;;;4.38;100.00;100053.55;1659814;84;21033;-65
2021/10/20 00:47:52;;;;;;;83.33;43.70;;;;;;;4.41;100.00;100041.00;1649988;85;21493;-66
2021/10/20 00:50:34;;;;;;;83.72;39.60;;;;;;;4.43;100.00;100034.98;1649884;85;21054;-65
2021/10/20 00:53:19;;;;;;;97.42;46.25;;;;;;;4.45;100.00;100019.36;1650279;86;21552;-65
2021/10/20 00:55:55;;;;;;;112.25;52.45;;;;;;;4.48;100.00;100012.04;1645955;85;21517;-65
2021/10/20 00:58:49;;;;;;;91.22;42.30;;;;;;;4.43;100.00;100004.94;1665505;81;21597;-68
2021/10/20 01:01:24;;;;;;;75.85;36.85;;;;;;;4.39;100.00;100000.46;1698687;83;21518;-66
2021/10/20 01:04:07;;;;;;;67.65;34.38;;;;;;;4.33;100.00;99996.34;1698434;83;21531;-65
2021/10/20 01:07:12;;;;;;;66.67;34.63;;;;;;;4.28;100.00;99988.78;1698301;82;21415;-66
2021/10/20 01:09:43;;;;;;;73.75;34.58;;;;;;;4.27;100.00;99983.09;1641770;83;21479;-66
2021/10/20 01:12:25;;;;;;;71.60;35.23;;;;;;;4.25;100.00;99984.73;1697154;81;21444;-66
2021/10/20 01:15:10;;;;;;;85.07;33.92;;;;;;;4.21;100.00;99969.80;1723720;82;21538;-65
2021/10/20 01:18:02;;;;;;;86.63;31.12;;;;;;;4.16;100.00;99978.33;1689743;83;21561;-66
2021/10/20 01:20:44;;;;;;;75.22;27.67;;;;;;;4.08;100.00;99984.61;1708272;81;21807;-66
2021/10/20 01:23:32;;;;;;;73.70;27.25;;;;;;;3.99;100.00;99986.91;1719421;81;21499;-65
2021/10/20 01:26:13;;;;;;;38.08;23.65;;;;;;;3.96;100.00;99994.23;1698763;83;20991;-65
2021/10/20 01:29:11;;;;;;;34.70;22.07;;;;;;;3.95;100.00;99985.92;1711863;81;20905;-65
2021/10/20 01:31:53;;;;;;;36.53;24.02;;;;;;;3.96;100.00;99982.48;1673050;83;21546;-65
2021/10/20 01:34:29;;;;;;;43.35;24.95;;;;;;;3.98;100.00;99969.48;1700450;81;22081;-65
2021/10/20 01:37:07;;;;;;;49.48;26.40;;;;;;;3.98;100.00;99973.39;1721739;81;21605;-65
2021/10/20 01:40:01;;;;;;;43.33;26.00;;;;;;;3.98;100.00;99972.98;1728169;82;21098;-66
2021/10/20 01:42:35;;;;;;;;;;;;;;;;;;;;;
2021/10/20 01:45:07;;;;;;;46.18;28.35;;;;;;;3.98;100.00;99970.36;1689630;83;21407;-66
2021/10/20 01:47:52;;;;;;;42.95;26.27;;;;;;;3.97;100.00;99961.18;1711483;81;21188;-65
2021/10/20 01:50:25;;;;;;;39.27;24.95;;;;;;;3.96;100.00;99964.20;1710109;82;20940;-66
2021/10/20 01:52:57;;;;;;;40.28;25.15;;;;;;;3.99;100.00;99973.86;1670336;82;20992;-66
2021/10/20 01:55:35;;;;;;;42.70;25.62;;;;;;;4.01;100.00;99970.88;1734692;80;21019;-65
2021/10/20 02:01:38;;;;;;;;;;;;;;;;;;;;;
2021/10/20 02:04:16;;;;;;;37.20;22.55;;;;;;;4.11;100.00;99982.09;1704626;82;20897;-64
2021/10/20 02:06:54;;;;;;;36.80;22.53;;;;;;;4.16;100.00;99977.02;1733314;81;21451;-64
2021/10/20 02:09:35;;;;;;;34.33;21.97;;;;;;;4.22;100.00;99972.88;1734907;81;21044;-65
2021/10/20 02:12:08;;;;;;;37.98;22.45;;;;;;;4.29;100.00;99963.55;1736038;81;21395;-66
2021/10/20 02:14:49;;;;;;;29.10;19.82;;;;;;;4.33;100.00;99968.92;1733740;82;21429;-66
2021/10/20 02:17:25;;;;;;;32.15;20.32;;;;;;;4.38;100.00;99967.76;1734651;81;20932;-66
2021/10/20 02:22:59;;;;;;;27.52;19.60;;;;;;;4.49;100.00;99976.81;1682379;82;21006;-65
2021/10/20 02:25:49;;;;;;;28.32;19.00;;;;;;;4.55;100.00;99965.67;1707433;82;20908;-65
2021/10/20 02:28:23;;;;;;;31.45;20.72;;;;;;;4.63;100.00;99972.02;1731427;82;20881;-66
2021/10/20 02:31:00;;;;;;;32.90;21.80;;;;;;;4.72;100.00;99961.84;1735713;82;20944;-66
2021/10/20 02:33:32;;;;;;;33.70;21.15;;;;;;;4.77;100.00;99962.02;1736110;81;21459;-66
2021/10/20 02:38:55;;;;;;;32.83;23.85;;;;;;;4.81;100.00;99958.22;1722751;81;20928;-65
2021/10/20 02:41:23;;;;;;;37.00;22.95;;;;;;;4.84;100.00;99959.62;1692163;82;21616;-64
2021/10/20 02:43:54;;;;;;;36.23;23.25;;;;;;;4.86;100.00;99957.05;1700224;82;21506;-66
2021/10/20 02:46:29;;;;;;;35.23;23.45;;;;;;;4.87;100.00;99960.13;1710420;82;20897;-66
2021/10/20 02:49:02;;;;;;;34.90;22.95;;;;;;;4.88;100.00;99963.21;1711202;82;21549;-66
2021/10/20 02:51:47;;;;;;;39.20;22.17;;;;;;;4.90;100.00;99957.61;1714526;83;21525;-65
2021/10/20 02:54:15;;;;;;;40.75;23.75;;;;;;;4.90;100.00;99955.87;1717974;82;22059;-66
2021/10/20 02:56:49;;;;;;;43.33;24.67;;;;;;;4.92;100.00;99961.16;1711602;82;20991;-66
2021/10/20 02:59:28;;;;;;;40.95;24.27;;;;;;;4.91;100.00;99956.77;1703326;82;21000;-66
2021/10/20 03:01:59;;;;;;;38.25;24.77;;;;;;;4.89;100.00;99964.98;1708657;82;21015;-67
2021/10/20 03:04:27;;;;;;;37.98;23.75;;;;;;;4.86;100.00;99961.86;1666080;84;21007;-69
2021/10/20 03:07:19;;;;;;;36.88;24.23;;;;;;;4.82;100.00;99956.50;1733249;82;21478;-66
2021/10/20 03:09:43;;;;;;;36.03;23.80;;;;;;;4.78;100.00;99951.60;1702229;82;20924;-67
2021/10/20 03:12:18;;;;;;;37.35;23.52;;;;;;;4.75;100.00;99963.27;1733458;81;21528;-68
2021/10/20 03:14:55;;;;;;;32.13;21.37;;;;;;;4.73;100.00;99963.22;1717037;82;20917;-66
2021/10/20 03:17:25;;;;;;;30.92;21.15;;;;;;;4.73;100.00;99967.56;1732821;82;21392;-66
2021/10/20 03:20:04;;;;;;;32.20;20.00;;;;;;;4.75;100.00;99968.50;1707988;82;21475;-67
2021/10/20 03:22:33;;;;;;;34.05;21.20;;;;;;;4.76;100.00;99972.00;1725978;81;21400;-66
2021/10/20 03:25:08;;;;;;;29.55;20.35;;;;;;;4.74;100.00;99971.53;1712617;82;21424;-66
2021/10/20 03:27:49;;;;;;;36.20;21.82;;;;;;;4.74;100.00;99968.92;1708785;82;21550;-66
2021/10/20 03:30:20;;;;;;;31.37;21.42;;;;;;;4.72;100.00;99966.64;1706956;82;21194;-66
2021/10/20 03:32:57;;;;;;;46.93;23.03;;;;;;;4.69;100.00;99963.94;1706908;82;21374;-67
2021/10/20 03:35:26;;;;;;;30.82;20.90;;;;;;;4.65;100.00;99954.23;1706469;82;21430;-67
2021/10/20 03:37:57;;;;;;;28.92;20.57;;;;;;;4.63;100.00;99960.26;1703594;82;20944;-68
2021/10/20 03:40:27;;;;;;;42.43;21.87;;;;;;;4.60;100.00;99951.02;1733372;81;20873;-67
2021/10/20 03:43:00;;;;;;;33.40;20.57;;;;;;;4.56;100.00;99953.95;1715445;81;21407;-68
2021/10/20 03:45:29;;;;;;;37.03;21.75;;;;;;;4.54;100.00;99949.53;1726528;81;21157;-68
2021/10/20 03:48:01;;;;;;;26.07;15.15;;;;;;;4.54;100.00;99951.72;1714265;82;21348;-68
2021/10/20 03:50:31;;;;;;;37.98;22.55;;;;;;;4.52;100.00;99956.43;1734483;82;20908;-68
2021/10/20 03:53:06;;;;;;;36.48;22.52;;;;;;;4.51;100.00;99961.19;1717677;82;20927;-69
2021/10/20 03:55:37;;;;;;;35.73;22.65;;;;;;;4.49;100.00;99961.14;1725166;81;21795;-65
2021/10/20 03:58:20;;;;;;;38.08;24.10;;;;;;;4.46;100.00;99962.77;1736587;81;21275;-67
2021/10/20 04:00:49;;;;;;;36.17;22.52;;;;;;;4.44;100.00;99957.50;1716422;82;21582;-68
2021/10/20 04:03:23;;;;;;;75.28;24.70;;;;;;;4.42;100.00;99949.62;1733259;81;21063;-67
2021/10/20 04:06:00;;;;;;;41.33;22.22;;;;;;;4.41;100.00;99951.77;1717956;82;20901;-67
2021/10/20 04:08:31;;;;;;;39.65;23.02;;;;;;;4.42;100.00;99959.18;1719934;81;21463;-68
2021/10/20 04:11:05;;;;;;;46.75;23.57;;;;;;;4.46;100.00;99960.16;1736105;81;21322;-68
2021/10/20 04:13:49;;;;;;;40.75;24.30;;;;;;;4.46;100.00;99950.59;1735049;81;20888;-67
2021/10/20 04:16:12;;;;;;;48.33;24.83;;;;;;;4.47;100.00;99943.23;1711163;82;21506;-69
2021/10/20 04:18:40;;;;;;;37.50;23.22;;;;;;;4.49;100.00;99955.03;1713665;82;21032;-67
2021/10/20 04:21:08;;;;;;;42.83;24.85;;;;;;;4.49;100.00;99954.61;1736051;81;21059;-66
2021/10/20 04:23:42;;;;;;;44.08;24.23;;;;;;;4.48;100.00;99953.26;1734734;82;21184;-65
2021/10/20 04:26:12;;;;;;;44.10;22.98;;;;;;;4.50;100.00;99952.89;1727335;81;21462;-68
2021/10/20 04:28:40;;;;;;;45.30;23.62;;;;;;;4.50;100.00;99955.50;1722761;82;20876;-65
2021/10/20 04:31:09;;;;;;;56.85;25.25;;;;;;;4.55;100.00;99955.22;1707735;82;21031;-67
2021/10/20 04:33:37;;;;;;;42.38;23.83;;;;;;;4.58;100.00;99953.58;1712576;81;21486;-69
2021/10/20 04:36:09;;;;;;;41.00;24.90;;;;;;;4.61;100.00;99952.79;1722599;81;21380;-68
2021/10/20 04:38:39;;;;;;;40.50;24.37;;;;;;;4.61;100.00;99951.06;1732629;82;20992;-69
2021/10/20 04:41:11;;;;;;;41.73;25.62;;;;;;;4.63;100.00;99948.50;1672730;84;21066;-68
2021/10/20 04:43:44;;;;;;;40.28;25.27;;;;;;;4.63;100.00;99948.50;1664479;84;21512;-69
2021/10/20 04:46:17;;;;;;;40.75;25.00;;;;;;;4.65;100.00;99946.81;1659354;85;20924;-69
2021/10/20 04:48:46;;;;;;;39.35;26.02;;;;;;;4.69;100.00;99948.68;1666718;84;21164;-69
2021/10/20 04:51:18;;;;;;;43.85;27.32;;;;;;;4.70;100.00;99947.42;1666774;85;21601;-69
2021/10/20 04:53:47;;;;;;;42.25;25.88;;;;;;;4.72;100.00;99940.93;1667814;85;21023;-69
2021/10/20 04:56:15;;;;;;;40.98;26.68;;;;;;;4.72;100.00;99948.35;1664379;85;21028;-68
2021/10/20 04:58:42;;;;;;;46.30;26.87;;;;;;;4.74;100.00;99948.01;1666378;85;20960;-68
2021/10/20 05:01:12;;;;;;;42.45;25.32;;;;;;;4.76;100.00;99958.52;1670437;83;21161;-67
2021/10/20 05:03:40;;;;;;;39.58;26.20;;;;;;;4.80;100.00;99956.88;1667679;84;21009;-69
2021/10/20 05:06:09;;;;;;;41.35;25.52;;;;;;;4.86;100.00;99960.97;1673786;84;21017;-67
2021/10/20 05:08:36;;;;;;;40.38;26.37;;;;;;;4.88;100.00;99961.48;1685556;83;21026;-68
2021/10/20 05:11:10;;;;;;;42.27;26.12;;;;;;;4.91;100.00;99965.49;1646160;85;21460;-67
2021/10/20 05:13:35;;;;;;;47.67;26.77;;;;;;;4.95;100.00;99964.74;1665462;85;21143;-68
2021/10/20 05:16:05;;;;;;;40.08;26.40;;;;;;;4.97;100.00;99970.02;1662243;84;20903;-67
2021/10/20 05:18:34;;;;;;;42.17;26.95;;;;;;;5.00;100.00;99972.30;1727361;81;20891;-66
2021/10/20 05:21:02;;;;;;;43.52;26.82;;;;;;;5.04;100.00;99971.97;1723158;82;21462;-67
2021/10/20 05:23:33;;;;;;;41.92;27.32;;;;;;;5.09;100.00;99970.37;1704429;82;20984;-67
2021/10/20 05:26:02;;;;;;;80.03;30.53;;;;;;;5.17;100.00;99968.86;1698485;83;21131;-69
2021/10/20 05:28:31;;;;;;;49.75;28.77;;;;;;;5.23;100.00;99971.67;1698968;83;21039;-68
2021/10/20 05:30:59;;;;;;;71.05;28.80;;;;;;;5.28;100.00;99973.11;1714015;81;21534;-68
2021/10/20 05:33:27;;;;;;;50.73;27.65;;;;;;;5.32;100.00;99968.01;1727992;83;21490;-66
2021/10/20 05:35:55;;;;;;;57.08;27.17;;;;;;;5.35;100.00;99965.90;1728091;81;21416;-66
2021/10/20 05:38:24;;;;;;;47.40;27.07;;;;;;;5.40;100.00;99968.22;1728084;81;22087;-67
2021/10/20 05:40:51;;;;;;;53.08;28.30;;;;;;;5.45;100.00;99969.23;1728081;83;20881;-68
2021/10/20 05:43:19;;;;;;;45.67;27.37;;;;;;;5.41;100.00;99966.48;1728122;83;21510;-66
2021/10/20 05:45:47;;;;;;;40.70;27.58;;;;;;;5.33;100.00;99964.97;1728124;81;20985;-68
2021/10/20 05:48:15;;;;;;;41.30;26.23;;;;;;;5.32;100.00;99960.16;1727440;83;20893;-68
2021/10/20 05:50:43;;;;;;;40.12;24.52;;;;;;;5.29;100.00;99957.46;1711757;81;21487;-67
2021/10/20 05:53:13;;;;;;;41.77;26.20;;;;;;;5.26;100.00;99957.80;1713586;82;20956;-67
2021/10/20 05:55:41;;;;;;;41.55;26.05;;;;;;;5.18;100.00;99964.09;1714158;81;20937;-68
2021/10/20 05:58:08;;;;;;;43.40;27.10;;;;;;;5.15;100.00;99970.54;1712931;83;20916;-68
2021/10/20 06:00:36;;;;;;;40.28;27.32;;;;;;;5.14;100.00;99968.77;1712561;83;20941;-68
2021/10/20 06:03:04;;;;;;;41.15;27.05;;;;;;;5.16;100.00;99974.05;1715050;81;21894;-68
2021/10/20 06:05:32;;;;;;;42.00;25.95;;;;;;;5.20;100.00;99974.21;1713434;83;21027;-68
2021/10/20 06:08:00;;;;;;;44.27;26.52;;;;;;;5.23;100.00;99975.60;1715223;81;21008;-68
2021/10/20 06:10:28;;;;;;;43.65;28.45;;;;;;;5.28;100.00;99969.19;1712463;81;21003;-67
2021/10/20 06:12:56;;;;;;;45.73;28.80;;;;;;;5.32;100.00;99974.55;1712482;83;21538;-68
2021/10/20 06:15:24;;;;;;;44.03;28.27;;;;;;;5.36;100.00;99978.14;1714970;82;22012;-67
2021/10/20 06:17:52;;;;;;;45.40;28.40;;;;;;;5.43;100.00;99983.11;1713712;81;20944;-68
2021/10/20 06:20:21;;;;;;;40.55;27.70;;;;;;;5.48;100.00;99983.70;1711796;81;21031;-67
2021/10/20 06:22:48;;;;;;;45.17;28.57;;;;;;;5.57;100.00;99981.34;1713888;83;20991;-66
2021/10/20 06:25:17;;;;;;;76.97;31.62;;;;;;;5.68;100.00;99986.47;1714256;81;21498;-67
2021/10/20 06:27:47;;;;;;;49.15;29.15;;;;;;;5.82;100.00;99988.56;1710015;81;21167;-67
2021/10/20 06:30:16;;;;;;;51.63;29.67;;;;;;;5.92;100.00;99987.98;1712479;83;20944;-68
2021/10/20 06:32:45;;;;;;;48.83;29.25;;;;;;;6.06;100.00;99986.60;1714453;81;21063;-69
2021/10/20 06:35:13;;;;;;;44.13;28.45;;;;;;;6.22;100.00;99991.41;1710699;81;20924;-68
2021/10/20 06:37:46;;;;;;;48.68;30.80;;;;;;;6.37;100.00;99983.45;1712125;81;20956;-69
2021/10/20 06:40:14;;;;;;;54.80;29.92;;;;;;;6.50;100.00;99985.08;1688493;83;21073;-67
2021/10/20 06:42:42;;;;;;;44.23;29.30;;;;;;;6.60;100.00;99988.80;1712042;81;20952;-67
2021/10/20 06:45:10;;;;;;;45.38;29.70;;;;;;;6.70;100.00;99985.57;1711832;83;20944;-66
2021/10/20 06:47:39;;;;;;;50.73;31.42;;;;;;;6.81;100.00;99981.88;1712172;83;21566;-67
2021/10/20 06:50:09;;;;;;;43.92;29.90;;;;;;;6.89;100.00;99990.38;1714442;82;21020;-66
2021/10/20 06:52:37;;;;;;;50.30;30.48;;;;;;;7.02;100.00;99994.57;1719541;82;21170;-66
2021/10/20 06:55:06;;;;;;;42.75;28.62;;;;;;;7.13;100.00;99990.47;1728029;82;20934;-67
2021/10/20 06:57:34;;;;;;;44.18;29.32;;;;;;;7.24;100.00;99987.21;1718794;81;20951;-66
2021/10/20 07:00:04;;;;;;;51.60;30.10;;;;;;;7.36;100.00;99987.00;1723018;81;21542;-66
2021/10/20 07:02:31;;;;;;;44.95;29.57;;;;;;;7.44;100.00;99987.61;1721216;82;20932;-66
2021/10/20 07:05:00;;;;;;;47.05;30.45;;;;;;;7.54;100.00;99992.18;1719736;82;21158;-68
2021/10/20 07:07:29;;;;;;;43.00;28.98;;;;;;;7.67;100.00;99993.33;1722275;82;20992;-68
2021/10/20 07:09:56;;;;;;;46.58;30.10;;;;;;;7.81;100.00;99991.84;1726594;82;21091;-67
2021/10/20 07:12:24;;;;;;;46.37;30.72;;;;;;;7.95;100.00;99985.52;1723512;81;20944;-67
2021/10/20 07:14:52;;;;;;;43.58;30.55;;;;;;;8.05;100.00;99982.22;1720671;81;21387;-68
2021/10/20 07:17:22;;;;;;;47.85;29.15;;;;;;;8.16;100.00;99981.09;1720062;82;20852;-68
2021/10/20 07:19:49;;;;;;;44.45;28.67;;;;;;;8.28;100.00;99981.30;1720674;82;20995;-67
2021/10/20 07:22:17;;;;;;;45.35;30.32;;;;;;;8.40;100.00;99979.32;1727685;81;20896;-68
2021/10/20 07:24:45;;;;;;;54.50;30.32;;;;;;;8.52;100.00;99971.66;1706673;84;20944;-67
2021/10/20 07:27:13;;;;;;;55.25;30.35;;;;;;;8.63;100.00;99970.06;1706814;82;20908;-68
2021/10/20 07:29:45;;;;;;;42.55;27.58;;;;;;;8.77;100.00;99966.31;1706741;82;21453;-68
2021/10/20 07:32:11;;;;;;;113.35;33.20;;;;;;;8.90;100.00;99966.05;1741905;81;21021;-68
2021/10/20 07:34:38;;;;;;;45.98;28.67;;;;;;;9.03;100.00;99951.79;1727447;81;21051;-68
2021/10/20 07:37:06;;;;;;;43.58;28.57;;;;;;;9.19;100.00;99957.25;1725208;81;21011;-69
2021/10/20 07:39:34;;;;;;;43.23;27.05;;;;;;;9.31;100.00;99950.38;1723632;82;21059;-68
2021/10/20 07:42:03;;;;;;;41.95;27.77;;;;;;;9.45;100.00;99950.09;1706733;84;21549;-68
2021/10/20 07:44:32;;;;;;;40.70;26.60;;;;;;;9.59;100.00;99943.69;1724834;82;20924;-66
2021/10/20 07:47:01;;;;;;;38.85;28.23;;;;;;;9.72;100.00;99940.31;1669496;84;21456;-67
2021/10/20 07:49:29;;;;;;;42.27;28.17;;;;;;;9.85;100.00;99937.79;1683167;84;21004;-67
2021/10/20 07:51:58;;;;;;;39.13;27.95;;;;;;;9.97;100.00;99938.81;1683339;84;21119;-66
